sensor_id;sensor_type;location;lat;lon;timestamp;temperature;humidity
8684;DHT22;4379;59.744;18.206;2022-10-16T00:01:23;12.30;99.90
8684;DHT22;4379;59.744;18.206;2022-10-16T00:03:52;12.30;99.90
8684;DHT22;4379;59.744;18.206;2022-10-16T00:06:21;12.30;99.90
8684;DHT22;4379;59.744;18.206;2022-10-16T00:08:49;12.30;99.90
8684;DHT22;4379;59.744;18.206;2022-10-16T00:11:23;12.20;99.90
8684;DHT22;4379;59.744;18.206;2022-10-16T00:13:54;12.20;99.90
8684;DHT22;4379;59.744;18.206;2022-10-16T00:16:21;12.20;99.90
8684;DHT22;4379;59.744;18.206;2022-10-16T00:18:48;12.20;99.90
8684;DHT22;4379;59.744;18.206;2022-10-16T00:21:22;12.20;99.90
8684;DHT22;4379;59.744;18.206;2022-10-16T00:23:54;12.20;99.90
8684;DHT22;4379;59.744;18.206;2022-10-16T00:26:22;12.30;99.90
8684;DHT22;4379;59.744;18.206;2022-10-16T00:28:50;12.30;99.90
8684;DHT22;4379;59.744;18.206;2022-10-16T00:31:21;12.30;99.90
8684;DHT22;4379;59.744;18.206;2022-10-16T00:33:49;12.30;99.90
8684;DHT22;4379;59.744;18.206;2022-10-16T00:36:20;12.20;99.90
8684;DHT22;4379;59.744;18.206;2022-10-16T00:38:53;12.20;99.90
8684;DHT22;4379;59.744;18.206;2022-10-16T00:41:23;12.20;99.90
8684;DHT22;4379;59.744;18.206;2022-10-16T00:43:54;12.20;99.90
8684;DHT22;4379;59.744;18.206;2022-10-16T00:46:23;12.30;99.90
8684;DHT22;4379;59.744;18.206;2022-10-16T00:49:05;12.20;99.90
8684;DHT22;4379;59.744;18.206;2022-10-16T00:51:42;12.20;99.90
8684;DHT22;4379;59.744;18.206;2022-10-16T00:54:27;12.20;99.90
8684;DHT22;4379;59.744;18.206;2022-10-16T00:56:56;12.20;99.90
8684;DHT22;4379;59.744;18.206;2022-10-16T00:59:30;12.20;99.90
8684;DHT22;4379;59.744;18.206;2022-10-16T01:01:59;12.30;99.90
8684;DHT22;4379;59.744;18.206;2022-10-16T01:04:26;12.30;99.90
8684;DHT22;4379;59.744;18.206;2022-10-16T01:07:23;12.30;99.90
8684;DHT22;4379;59.744;18.206;2022-10-16T01:13:15;12.20;99.90
8684;DHT22;4379;59.744;18.206;2022-10-16T01:15:44;12.20;99.90
8684;DHT22;4379;59.744;18.206;2022-10-16T01:21:20;12.00;99.90
8684;DHT22;4379;59.744;18.206;2022-10-16T01:29:42;12.00;99.90
8684;DHT22;4379;59.744;18.206;2022-10-16T01:32:28;12.00;99.90
8684;DHT22;4379;59.744;18.206;2022-10-16T01:35:03;11.90;99.90
8684;DHT22;4379;59.744;18.206;2022-10-16T01:37:36;11.90;99.90
8684;DHT22;4379;59.744;18.206;2022-10-16T01:40:09;11.90;99.90
8684;DHT22;4379;59.744;18.206;2022-10-16T01:42:42;11.90;99.90
8684;DHT22;4379;59.744;18.206;2022-10-16T01:45:13;11.90;99.90
8684;DHT22;4379;59.744;18.206;2022-10-16T01:47:42;11.80;99.90
8684;DHT22;4379;59.744;18.206;2022-10-16T01:50:12;11.80;99.90
8684;DHT22;4379;59.744;18.206;2022-10-16T01:52:45;11.70;99.90
8684;DHT22;4379;59.744;18.206;2022-10-16T01:55:20;11.60;99.90
8684;DHT22;4379;59.744;18.206;2022-10-16T01:57:50;11.60;99.90
8684;DHT22;4379;59.744;18.206;2022-10-16T02:00:20;11.70;99.90
8684;DHT22;4379;59.744;18.206;2022-10-16T02:02:50;11.70;99.90
8684;DHT22;4379;59.744;18.206;2022-10-16T02:05:30;11.70;99.90
8684;DHT22;4379;59.744;18.206;2022-10-16T02:07:58;11.70;99.90
8684;DHT22;4379;59.744;18.206;2022-10-16T02:10:30;11.70;99.90
8684;DHT22;4379;59.744;18.206;2022-10-16T02:13:12;11.70;99.90
8684;DHT22;4379;59.744;18.206;2022-10-16T02:15:40;11.70;99.90
8684;DHT22;4379;59.744;18.206;2022-10-16T02:18:09;11.70;99.90
8684;DHT22;4379;59.744;18.206;2022-10-16T02:20:52;11.70;99.90
8684;DHT22;4379;59.744;18.206;2022-10-16T02:23:29;11.70;99.90
8684;DHT22;4379;59.744;18.206;2022-10-16T02:26:01;11.70;99.90
8684;DHT22;4379;59.744;18.206;2022-10-16T02:28:45;11.70;99.90
8684;DHT22;4379;59.744;18.206;2022-10-16T02:31:18;11.70;99.90
8684;DHT22;4379;59.744;18.206;2022-10-16T02:33:51;11.60;99.90
8684;DHT22;4379;59.744;18.206;2022-10-16T02:36:19;11.60;99.90
8684;DHT22;4379;59.744;18.206;2022-10-16T02:38:46;11.50;99.90
8684;DHT22;4379;59.744;18.206;2022-10-16T02:41:14;11.50;99.90
8684;DHT22;4379;59.744;18.206;2022-10-16T02:43:41;11.50;99.90
8684;DHT22;4379;59.744;18.206;2022-10-16T02:46:09;11.40;99.90
8684;DHT22;4379;59.744;18.206;2022-10-16T02:48:36;11.40;99.90
8684;DHT22;4379;59.744;18.206;2022-10-16T02:51:03;11.40;99.90
8684;DHT22;4379;59.744;18.206;2022-10-16T02:53:30;11.40;99.90
8684;DHT22;4379;59.744;18.206;2022-10-16T02:55:58;11.50;99.90
8684;DHT22;4379;59.744;18.206;2022-10-16T02:58:25;11.50;99.90
8684;DHT22;4379;59.744;18.206;2022-10-16T03:00:52;11.50;99.90
8684;DHT22;4379;59.744;18.206;2022-10-16T03:03:19;11.50;99.90
8684;DHT22;4379;59.744;18.206;2022-10-16T03:05:46;11.50;99.90
8684;DHT22;4379;59.744;18.206;2022-10-16T03:08:14;11.60;99.90
8684;DHT22;4379;59.744;18.206;2022-10-16T03:10:41;11.60;99.90
8684;DHT22;4379;59.744;18.206;2022-10-16T03:13:08;11.50;99.90
8684;DHT22;4379;59.744;18.206;2022-10-16T03:15:35;11.50;99.90
8684;DHT22;4379;59.744;18.206;2022-10-16T03:18:03;11.50;99.90
8684;DHT22;4379;59.744;18.206;2022-10-16T03:20:30;11.50;99.90
8684;DHT22;4379;59.744;18.206;2022-10-16T03:22:57;11.60;99.90
8684;DHT22;4379;59.744;18.206;2022-10-16T03:25:24;11.60;99.90
8684;DHT22;4379;59.744;18.206;2022-10-16T03:27:52;11.50;99.90
8684;DHT22;4379;59.744;18.206;2022-10-16T03:30:19;11.60;99.90
8684;DHT22;4379;59.744;18.206;2022-10-16T03:32:46;11.60;99.90
8684;DHT22;4379;59.744;18.206;2022-10-16T03:35:13;11.60;99.90
8684;DHT22;4379;59.744;18.206;2022-10-16T03:37:40;11.60;99.90
8684;DHT22;4379;59.744;18.206;2022-10-16T03:40:08;11.60;99.90
8684;DHT22;4379;59.744;18.206;2022-10-16T03:42:35;11.60;99.90
8684;DHT22;4379;59.744;18.206;2022-10-16T03:45:03;11.50;99.90
8684;DHT22;4379;59.744;18.206;2022-10-16T03:47:30;11.60;99.90
8684;DHT22;4379;59.744;18.206;2022-10-16T03:50:00;11.60;99.90
8684;DHT22;4379;59.744;18.206;2022-10-16T03:52:27;11.50;99.90
8684;DHT22;4379;59.744;18.206;2022-10-16T03:54:54;11.60;99.90
8684;DHT22;4379;59.744;18.206;2022-10-16T03:57:22;11.60;99.90
8684;DHT22;4379;59.744;18.206;2022-10-16T03:59:50;11.60;99.90
8684;DHT22;4379;59.744;18.206;2022-10-16T04:02:17;11.60;99.90
8684;DHT22;4379;59.744;18.206;2022-10-16T04:04:45;11.60;99.90
8684;DHT22;4379;59.744;18.206;2022-10-16T04:07:12;11.50;99.90
8684;DHT22;4379;59.744;18.206;2022-10-16T04:09:39;11.50;99.90
8684;DHT22;4379;59.744;18.206;2022-10-16T04:12:06;11.50;99.90
8684;DHT22;4379;59.744;18.206;2022-10-16T04:14:34;11.50;99.90
8684;DHT22;4379;59.744;18.206;2022-10-16T04:17:01;11.50;99.90
8684;DHT22;4379;59.744;18.206;2022-10-16T04:19:28;11.50;99.90
8684;DHT22;4379;59.744;18.206;2022-10-16T04:21:56;11.50;99.90
8684;DHT22;4379;59.744;18.206;2022-10-16T04:24:23;11.50;99.90
8684;DHT22;4379;59.744;18.206;2022-10-16T04:26:50;11.50;99.90
8684;DHT22;4379;59.744;18.206;2022-10-16T04:29:17;11.40;99.90
8684;DHT22;4379;59.744;18.206;2022-10-16T04:31:45;11.40;99.90
8684;DHT22;4379;59.744;18.206;2022-10-16T04:34:13;11.40;99.90
8684;DHT22;4379;59.744;18.206;2022-10-16T04:36:40;11.40;99.90
8684;DHT22;4379;59.744;18.206;2022-10-16T04:39:07;11.40;99.90
8684;DHT22;4379;59.744;18.206;2022-10-16T04:41:34;11.40;99.90
8684;DHT22;4379;59.744;18.206;2022-10-16T04:44:02;11.40;99.90
8684;DHT22;4379;59.744;18.206;2022-10-16T04:46:29;11.50;99.90
8684;DHT22;4379;59.744;18.206;2022-10-16T04:48:56;11.40;99.90
8684;DHT22;4379;59.744;18.206;2022-10-16T04:51:23;11.40;99.90
8684;DHT22;4379;59.744;18.206;2022-10-16T04:53:52;11.40;99.90
8684;DHT22;4379;59.744;18.206;2022-10-16T04:56:20;11.30;99.90
8684;DHT22;4379;59.744;18.206;2022-10-16T04:58:48;11.30;99.90
8684;DHT22;4379;59.744;18.206;2022-10-16T05:01:15;11.30;99.90
8684;DHT22;4379;59.744;18.206;2022-10-16T05:03:42;11.30;99.90
8684;DHT22;4379;59.744;18.206;2022-10-16T05:06:09;11.30;99.90
8684;DHT22;4379;59.744;18.206;2022-10-16T05:08:36;11.40;99.90
8684;DHT22;4379;59.744;18.206;2022-10-16T05:11:03;11.30;99.90
8684;DHT22;4379;59.744;18.206;2022-10-16T05:13:31;11.30;99.90
8684;DHT22;4379;59.744;18.206;2022-10-16T05:15:58;11.40;99.90
8684;DHT22;4379;59.744;18.206;2022-10-16T05:18:25;11.40;99.90
8684;DHT22;4379;59.744;18.206;2022-10-16T05:20:52;11.40;99.90
8684;DHT22;4379;59.744;18.206;2022-10-16T05:23:19;11.50;99.90
8684;DHT22;4379;59.744;18.206;2022-10-16T05:25:57;11.40;99.90
8684;DHT22;4379;59.744;18.206;2022-10-16T05:28:26;11.40;99.90
8684;DHT22;4379;59.744;18.206;2022-10-16T05:30:54;11.40;99.90
8684;DHT22;4379;59.744;18.206;2022-10-16T05:33:24;11.40;99.90
8684;DHT22;4379;59.744;18.206;2022-10-16T05:35:51;11.40;99.90
8684;DHT22;4379;59.744;18.206;2022-10-16T05:38:19;11.40;99.90
8684;DHT22;4379;59.744;18.206;2022-10-16T05:40:52;11.40;99.90
8684;DHT22;4379;59.744;18.206;2022-10-16T05:43:20;11.40;99.90
8684;DHT22;4379;59.744;18.206;2022-10-16T05:45:58;11.40;99.90
8684;DHT22;4379;59.744;18.206;2022-10-16T05:48:26;11.40;99.90
8684;DHT22;4379;59.744;18.206;2022-10-16T05:51:04;11.40;99.90
8684;DHT22;4379;59.744;18.206;2022-10-16T05:53:33;11.30;99.90
8684;DHT22;4379;59.744;18.206;2022-10-16T05:56:01;11.40;99.90
8684;DHT22;4379;59.744;18.206;2022-10-16T05:58:33;11.40;99.90
8684;DHT22;4379;59.744;18.206;2022-10-16T06:01:05;11.40;99.90
8684;DHT22;4379;59.744;18.206;2022-10-16T06:03:34;11.50;99.90
8684;DHT22;4379;59.744;18.206;2022-10-16T06:06:12;11.30;99.90
8684;DHT22;4379;59.744;18.206;2022-10-16T06:08:41;11.30;99.90
8684;DHT22;4379;59.744;18.206;2022-10-16T06:11:10;11.30;99.90
8684;DHT22;4379;59.744;18.206;2022-10-16T06:13:38;11.20;99.90
8684;DHT22;4379;59.744;18.206;2022-10-16T06:16:09;11.20;99.90
8684;DHT22;4379;59.744;18.206;2022-10-16T06:18:36;11.20;99.90
8684;DHT22;4379;59.744;18.206;2022-10-16T06:21:13;11.30;99.90
8684;DHT22;4379;59.744;18.206;2022-10-16T06:23:44;11.30;99.90
8684;DHT22;4379;59.744;18.206;2022-10-16T06:26:16;11.30;99.90
8684;DHT22;4379;59.744;18.206;2022-10-16T06:28:44;11.30;99.90
8684;DHT22;4379;59.744;18.206;2022-10-16T06:31:12;11.30;99.90
8684;DHT22;4379;59.744;18.206;2022-10-16T06:33:40;11.20;99.90
8684;DHT22;4379;59.744;18.206;2022-10-16T06:36:12;11.30;99.90
8684;DHT22;4379;59.744;18.206;2022-10-16T06:38:41;11.20;99.90
8684;DHT22;4379;59.744;18.206;2022-10-16T06:41:12;11.30;99.90
8684;DHT22;4379;59.744;18.206;2022-10-16T06:43:39;11.40;99.90
8684;DHT22;4379;59.744;18.206;2022-10-16T06:46:09;11.30;99.90
8684;DHT22;4379;59.744;18.206;2022-10-16T06:48:37;11.20;99.90
8684;DHT22;4379;59.744;18.206;2022-10-16T06:53:35;11.20;99.90
8684;DHT22;4379;59.744;18.206;2022-10-16T06:56:20;11.20;99.90
8684;DHT22;4379;59.744;18.206;2022-10-16T06:58:49;11.20;99.90
8684;DHT22;4379;59.744;18.206;2022-10-16T07:01:18;11.30;99.90
8684;DHT22;4379;59.744;18.206;2022-10-16T07:03:46;11.20;99.90
8684;DHT22;4379;59.744;18.206;2022-10-16T07:06:17;11.30;99.90
8684;DHT22;4379;59.744;18.206;2022-10-16T07:08:46;11.30;99.90
8684;DHT22;4379;59.744;18.206;2022-10-16T07:11:17;11.30;99.90
8684;DHT22;4379;59.744;18.206;2022-10-16T07:13:46;11.40;99.90
8684;DHT22;4379;59.744;18.206;2022-10-16T07:16:28;11.40;99.90
8684;DHT22;4379;59.744;18.206;2022-10-16T07:18:58;11.30;99.90
8684;DHT22;4379;59.744;18.206;2022-10-16T07:21:32;11.40;99.90
8684;DHT22;4379;59.744;18.206;2022-10-16T07:24:04;11.40;99.90
8684;DHT22;4379;59.744;18.206;2022-10-16T07:26:35;11.50;99.90
8684;DHT22;4379;59.744;18.206;2022-10-16T07:29:03;11.60;99.90
8684;DHT22;4379;59.744;18.206;2022-10-16T07:31:31;11.50;99.90
8684;DHT22;4379;59.744;18.206;2022-10-16T07:34:01;11.50;99.90
8684;DHT22;4379;59.744;18.206;2022-10-16T07:36:28;11.50;99.90
8684;DHT22;4379;59.744;18.206;2022-10-16T07:38:56;11.50;99.90
8684;DHT22;4379;59.744;18.206;2022-10-16T07:41:26;11.50;99.90
8684;DHT22;4379;59.744;18.206;2022-10-16T07:43:54;11.50;99.90
8684;DHT22;4379;59.744;18.206;2022-10-16T07:46:23;11.50;99.90
8684;DHT22;4379;59.744;18.206;2022-10-16T07:48:50;11.50;99.90
8684;DHT22;4379;59.744;18.206;2022-10-16T07:51:20;11.60;99.90
8684;DHT22;4379;59.744;18.206;2022-10-16T07:53:48;11.50;99.90
8684;DHT22;4379;59.744;18.206;2022-10-16T07:56:17;11.50;99.90
8684;DHT22;4379;59.744;18.206;2022-10-16T07:58:45;11.50;99.90
8684;DHT22;4379;59.744;18.206;2022-10-16T08:01:14;11.50;99.90
8684;DHT22;4379;59.744;18.206;2022-10-16T08:03:47;11.50;99.90
8684;DHT22;4379;59.744;18.206;2022-10-16T08:06:14;11.50;99.90
8684;DHT22;4379;59.744;18.206;2022-10-16T08:08:42;11.50;99.90
8684;DHT22;4379;59.744;18.206;2022-10-16T08:11:10;11.60;99.90
8684;DHT22;4379;59.744;18.206;2022-10-16T08:13:37;11.70;99.90
8684;DHT22;4379;59.744;18.206;2022-10-16T08:16:05;11.60;99.90
8684;DHT22;4379;59.744;18.206;2022-10-16T08:18:36;11.80;99.90
8684;DHT22;4379;59.744;18.206;2022-10-16T08:21:04;11.80;99.90
8684;DHT22;4379;59.744;18.206;2022-10-16T08:23:33;11.90;99.90
8684;DHT22;4379;59.744;18.206;2022-10-16T08:26:07;12.00;99.90
8684;DHT22;4379;59.744;18.206;2022-10-16T08:28:35;11.90;99.90
8684;DHT22;4379;59.744;18.206;2022-10-16T08:31:11;11.90;99.90
8684;DHT22;4379;59.744;18.206;2022-10-16T08:33:40;12.10;99.90
8684;DHT22;4379;59.744;18.206;2022-10-16T08:36:09;12.20;99.90
8684;DHT22;4379;59.744;18.206;2022-10-16T08:38:37;12.20;99.90
8684;DHT22;4379;59.744;18.206;2022-10-16T08:47:07;12.50;99.90
8684;DHT22;4379;59.744;18.206;2022-10-16T08:49:38;12.50;99.90
8684;DHT22;4379;59.744;18.206;2022-10-16T08:52:13;12.60;99.90
8684;DHT22;4379;59.744;18.206;2022-10-16T08:54:47;12.60;99.90
8684;DHT22;4379;59.744;18.206;2022-10-16T08:57:24;12.50;99.90
8684;DHT22;4379;59.744;18.206;2022-10-16T08:59:52;12.50;99.90
8684;DHT22;4379;59.744;18.206;2022-10-16T09:02:35;12.50;99.90
8684;DHT22;4379;59.744;18.206;2022-10-16T09:10:35;12.50;99.90
8684;DHT22;4379;59.744;18.206;2022-10-16T09:19:20;12.50;99.90
8684;DHT22;4379;59.744;18.206;2022-10-16T09:21:46;12.50;99.90
8684;DHT22;4379;59.744;18.206;2022-10-16T09:24:18;12.70;99.90
8684;DHT22;4379;59.744;18.206;2022-10-16T09:26:46;12.80;99.90
8684;DHT22;4379;59.744;18.206;2022-10-16T09:29:16;12.80;99.90
8684;DHT22;4379;59.744;18.206;2022-10-16T09:31:44;12.70;99.90
8684;DHT22;4379;59.744;18.206;2022-10-16T09:34:30;12.80;99.90
8684;DHT22;4379;59.744;18.206;2022-10-16T09:37:00;12.70;99.90
8684;DHT22;4379;59.744;18.206;2022-10-16T09:39:28;12.90;99.90
8684;DHT22;4379;59.744;18.206;2022-10-16T09:41:55;12.80;99.90
8684;DHT22;4379;59.744;18.206;2022-10-16T09:44:29;12.70;99.90
8684;DHT22;4379;59.744;18.206;2022-10-16T09:47:27;12.80;99.90
8684;DHT22;4379;59.744;18.206;2022-10-16T09:50:04;12.90;99.90
8684;DHT22;4379;59.744;18.206;2022-10-16T09:52:33;12.90;99.90
8684;DHT22;4379;59.744;18.206;2022-10-16T09:55:12;13.00;99.90
8684;DHT22;4379;59.744;18.206;2022-10-16T09:57:53;13.40;99.90
8684;DHT22;4379;59.744;18.206;2022-10-16T10:00:23;13.50;99.90
8684;DHT22;4379;59.744;18.206;2022-10-16T10:02:51;13.60;99.90
8684;DHT22;4379;59.744;18.206;2022-10-16T10:05:24;13.70;99.90
8684;DHT22;4379;59.744;18.206;2022-10-16T10:07:55;13.60;99.90
8684;DHT22;4379;59.744;18.206;2022-10-16T10:10:26;13.40;99.90
8684;DHT22;4379;59.744;18.206;2022-10-16T10:12:55;13.50;99.90
8684;DHT22;4379;59.744;18.206;2022-10-16T10:15:24;13.50;99.90
8684;DHT22;4379;59.744;18.206;2022-10-16T10:17:53;13.50;99.90
8684;DHT22;4379;59.744;18.206;2022-10-16T10:20:33;13.40;99.90
8684;DHT22;4379;59.744;18.206;2022-10-16T10:23:23;13.30;99.90
8684;DHT22;4379;59.744;18.206;2022-10-16T10:26:11;13.20;99.90
8684;DHT22;4379;59.744;18.206;2022-10-16T10:29:04;13.00;99.90
8684;DHT22;4379;59.744;18.206;2022-10-16T10:45:59;13.00;99.90
8684;DHT22;4379;59.744;18.206;2022-10-16T10:48:45;12.90;99.90
8684;DHT22;4379;59.744;18.206;2022-10-16T10:54:02;12.70;99.90
8684;DHT22;4379;59.744;18.206;2022-10-16T10:56:56;12.60;99.90
8684;DHT22;4379;59.744;18.206;2022-10-16T11:07:51;12.90;99.90
8684;DHT22;4379;59.744;18.206;2022-10-16T11:10:25;13.10;99.90
8684;DHT22;4379;59.744;18.206;2022-10-16T11:13:28;13.00;99.90
8684;DHT22;4379;59.744;18.206;2022-10-16T11:16:00;13.10;99.90
8684;DHT22;4379;59.744;18.206;2022-10-16T11:19:11;13.10;99.90
8684;DHT22;4379;59.744;18.206;2022-10-16T11:21:44;13.20;99.90
8684;DHT22;4379;59.744;18.206;2022-10-16T11:24:22;13.30;99.90
8684;DHT22;4379;59.744;18.206;2022-10-16T11:26:52;13.30;99.90
8684;DHT22;4379;59.744;18.206;2022-10-16T11:29:26;13.40;99.90
8684;DHT22;4379;59.744;18.206;2022-10-16T11:32:04;13.30;99.90
8684;DHT22;4379;59.744;18.206;2022-10-16T11:34:49;13.20;99.90
8684;DHT22;4379;59.744;18.206;2022-10-16T11:37:21;12.90;99.90
8684;DHT22;4379;59.744;18.206;2022-10-16T11:39:54;12.70;99.90
8684;DHT22;4379;59.744;18.206;2022-10-16T11:42:36;12.50;99.90
8684;DHT22;4379;59.744;18.206;2022-10-16T11:45:26;12.40;99.90
8684;DHT22;4379;59.744;18.206;2022-10-16T11:48:15;12.40;99.90
8684;DHT22;4379;59.744;18.206;2022-10-16T11:51:09;12.50;99.90
8684;DHT22;4379;59.744;18.206;2022-10-16T11:56:21;12.80;99.90
8684;DHT22;4379;59.744;18.206;2022-10-16T11:59:01;12.90;99.90
8684;DHT22;4379;59.744;18.206;2022-10-16T12:04:23;12.90;99.90
8684;DHT22;4379;59.744;18.206;2022-10-16T12:09:30;13.00;99.90
8684;DHT22;4379;59.744;18.206;2022-10-16T12:11:58;13.10;99.90
8684;DHT22;4379;59.744;18.206;2022-10-16T12:17:22;13.40;99.90
8684;DHT22;4379;59.744;18.206;2022-10-16T12:20:24;13.60;99.90
8684;DHT22;4379;59.744;18.206;2022-10-16T12:22:54;13.50;99.90
8684;DHT22;4379;59.744;18.206;2022-10-16T12:27:59;13.40;99.90
8684;DHT22;4379;59.744;18.206;2022-10-16T12:30:30;13.20;99.90
8684;DHT22;4379;59.744;18.206;2022-10-16T12:33:23;13.20;99.90
8684;DHT22;4379;59.744;18.206;2022-10-16T12:35:51;13.20;99.90
8684;DHT22;4379;59.744;18.206;2022-10-16T12:38:25;13.30;99.90
8684;DHT22;4379;59.744;18.206;2022-10-16T12:41:03;13.30;99.90
8684;DHT22;4379;59.744;18.206;2022-10-16T12:43:42;13.40;99.90
8684;DHT22;4379;59.744;18.206;2022-10-16T12:48:38;13.30;99.90
8684;DHT22;4379;59.744;18.206;2022-10-16T12:54:16;13.20;99.90
8684;DHT22;4379;59.744;18.206;2022-10-16T12:57:03;13.20;99.90
8684;DHT22;4379;59.744;18.206;2022-10-16T13:11:02;13.40;99.90
8684;DHT22;4379;59.744;18.206;2022-10-16T13:19:39;13.40;99.90
8684;DHT22;4379;59.744;18.206;2022-10-16T13:33:06;13.10;99.90
8684;DHT22;4379;59.744;18.206;2022-10-16T13:35:36;13.00;99.90
8684;DHT22;4379;59.744;18.206;2022-10-16T13:38:14;13.00;99.90
8684;DHT22;4379;59.744;18.206;2022-10-16T13:40:58;13.10;99.90
8684;DHT22;4379;59.744;18.206;2022-10-16T13:43:45;13.00;99.90
8684;DHT22;4379;59.744;18.206;2022-10-16T13:46:16;12.90;99.90
8684;DHT22;4379;59.744;18.206;2022-10-16T13:48:55;12.70;99.90
8684;DHT22;4379;59.744;18.206;2022-10-16T13:51:24;12.60;99.90
8684;DHT22;4379;59.744;18.206;2022-10-16T13:53:52;12.40;99.90
8684;DHT22;4379;59.744;18.206;2022-10-16T13:56:22;12.10;99.90
8684;DHT22;4379;59.744;18.206;2022-10-16T13:59:25;12.10;99.90
8684;DHT22;4379;59.744;18.206;2022-10-16T14:01:54;12.10;99.90
8684;DHT22;4379;59.744;18.206;2022-10-16T14:04:23;11.90;99.90
8684;DHT22;4379;59.744;18.206;2022-10-16T14:06:53;11.70;99.90
8684;DHT22;4379;59.744;18.206;2022-10-16T14:09:25;11.60;99.90
8684;DHT22;4379;59.744;18.206;2022-10-16T14:12:13;11.30;99.90
8684;DHT22;4379;59.744;18.206;2022-10-16T14:14:49;10.90;99.90
8684;DHT22;4379;59.744;18.206;2022-10-16T14:17:29;10.70;99.90
8684;DHT22;4379;59.744;18.206;2022-10-16T14:19:59;10.40;99.90
8684;DHT22;4379;59.744;18.206;2022-10-16T14:22:33;10.20;99.90
8684;DHT22;4379;59.744;18.206;2022-10-16T14:25:02;10.40;99.90
8684;DHT22;4379;59.744;18.206;2022-10-16T14:27:41;10.40;99.90
8684;DHT22;4379;59.744;18.206;2022-10-16T14:30:21;10.50;99.90
8684;DHT22;4379;59.744;18.206;2022-10-16T14:33:03;10.40;99.90
8684;DHT22;4379;59.744;18.206;2022-10-16T14:35:35;10.40;99.90
8684;DHT22;4379;59.744;18.206;2022-10-16T14:38:05;10.40;99.90
8684;DHT22;4379;59.744;18.206;2022-10-16T14:40:35;10.40;99.90
8684;DHT22;4379;59.744;18.206;2022-10-16T14:43:05;10.30;99.90
8684;DHT22;4379;59.744;18.206;2022-10-16T14:45:34;10.30;99.90
8684;DHT22;4379;59.744;18.206;2022-10-16T14:48:06;10.20;99.90
8684;DHT22;4379;59.744;18.206;2022-10-16T14:50:45;10.00;99.90
8684;DHT22;4379;59.744;18.206;2022-10-16T14:53:13;9.90;99.90
8684;DHT22;4379;59.744;18.206;2022-10-16T14:55:42;9.80;99.90
8684;DHT22;4379;59.744;18.206;2022-10-16T14:58:22;9.80;99.90
8684;DHT22;4379;59.744;18.206;2022-10-16T15:00:50;9.80;99.90
8684;DHT22;4379;59.744;18.206;2022-10-16T15:03:17;9.60;99.90
8684;DHT22;4379;59.744;18.206;2022-10-16T15:05:45;9.70;99.90
8684;DHT22;4379;59.744;18.206;2022-10-16T15:08:13;9.80;99.90
8684;DHT22;4379;59.744;18.206;2022-10-16T15:10:43;9.70;99.90
8684;DHT22;4379;59.744;18.206;2022-10-16T15:13:14;9.70;99.90
8684;DHT22;4379;59.744;18.206;2022-10-16T15:15:46;9.60;99.90
8684;DHT22;4379;59.744;18.206;2022-10-16T15:18:13;9.70;99.90
8684;DHT22;4379;59.744;18.206;2022-10-16T15:20:50;9.70;99.90
8684;DHT22;4379;59.744;18.206;2022-10-16T15:23:20;9.80;99.90
8684;DHT22;4379;59.744;18.206;2022-10-16T15:25:51;9.80;99.90
8684;DHT22;4379;59.744;18.206;2022-10-16T15:28:20;9.80;99.90
8684;DHT22;4379;59.744;18.206;2022-10-16T15:30:55;9.80;99.90
8684;DHT22;4379;59.744;18.206;2022-10-16T15:33:25;9.60;99.90
8684;DHT22;4379;59.744;18.206;2022-10-16T15:36:06;9.60;99.90
8684;DHT22;4379;59.744;18.206;2022-10-16T15:38:33;9.60;99.90
8684;DHT22;4379;59.744;18.206;2022-10-16T15:41:01;9.50;99.90
8684;DHT22;4379;59.744;18.206;2022-10-16T15:43:31;9.50;99.90
8684;DHT22;4379;59.744;18.206;2022-10-16T15:46:06;9.60;99.90
8684;DHT22;4379;59.744;18.206;2022-10-16T15:48:35;9.60;99.90
8684;DHT22;4379;59.744;18.206;2022-10-16T15:51:07;9.60;99.90
8684;DHT22;4379;59.744;18.206;2022-10-16T15:53:35;9.70;99.90
8684;DHT22;4379;59.744;18.206;2022-10-16T15:56:04;9.60;99.90
8684;DHT22;4379;59.744;18.206;2022-10-16T15:58:31;9.50;99.90
8684;DHT22;4379;59.744;18.206;2022-10-16T16:01:00;9.50;99.90
8684;DHT22;4379;59.744;18.206;2022-10-16T16:03:31;9.50;99.90
8684;DHT22;4379;59.744;18.206;2022-10-16T16:06:03;9.60;99.90
8684;DHT22;4379;59.744;18.206;2022-10-16T16:08:30;9.60;99.90
8684;DHT22;4379;59.744;18.206;2022-10-16T16:11:14;9.50;99.90
8684;DHT22;4379;59.744;18.206;2022-10-16T16:13:42;9.50;99.90
8684;DHT22;4379;59.744;18.206;2022-10-16T16:16:11;9.40;99.90
8684;DHT22;4379;59.744;18.206;2022-10-16T16:18:39;9.30;99.90
8684;DHT22;4379;59.744;18.206;2022-10-16T16:21:07;9.20;99.90
8684;DHT22;4379;59.744;18.206;2022-10-16T16:23:35;9.20;99.90
8684;DHT22;4379;59.744;18.206;2022-10-16T16:26:18;9.20;99.90
8684;DHT22;4379;59.744;18.206;2022-10-16T16:28:50;9.20;99.90
8684;DHT22;4379;59.744;18.206;2022-10-16T16:31:18;9.10;99.90
8684;DHT22;4379;59.744;18.206;2022-10-16T16:33:45;9.10;99.90
8684;DHT22;4379;59.744;18.206;2022-10-16T16:36:13;9.20;99.90
8684;DHT22;4379;59.744;18.206;2022-10-16T16:38:42;9.10;99.90
8684;DHT22;4379;59.744;18.206;2022-10-16T16:41:16;9.10;99.90
8684;DHT22;4379;59.744;18.206;2022-10-16T16:43:44;9.10;99.90
8684;DHT22;4379;59.744;18.206;2022-10-16T16:46:11;9.20;99.90
8684;DHT22;4379;59.744;18.206;2022-10-16T16:48:39;9.20;99.90
8684;DHT22;4379;59.744;18.206;2022-10-16T16:51:11;9.20;99.90
8684;DHT22;4379;59.744;18.206;2022-10-16T16:53:44;9.10;99.90
8684;DHT22;4379;59.744;18.206;2022-10-16T16:56:12;9.10;99.90
8684;DHT22;4379;59.744;18.206;2022-10-16T16:58:41;9.10;99.90
8684;DHT22;4379;59.744;18.206;2022-10-16T17:01:10;9.20;99.90
8684;DHT22;4379;59.744;18.206;2022-10-16T17:03:48;9.20;99.90
8684;DHT22;4379;59.744;18.206;2022-10-16T17:06:19;9.20;99.90
8684;DHT22;4379;59.744;18.206;2022-10-16T17:08:48;9.20;99.90
8684;DHT22;4379;59.744;18.206;2022-10-16T17:11:21;9.20;99.90
8684;DHT22;4379;59.744;18.206;2022-10-16T17:13:50;9.20;99.90
8684;DHT22;4379;59.744;18.206;2022-10-16T17:16:34;9.20;99.90
8684;DHT22;4379;59.744;18.206;2022-10-16T17:19:04;9.20;99.90
8684;DHT22;4379;59.744;18.206;2022-10-16T17:21:32;9.10;99.90
8684;DHT22;4379;59.744;18.206;2022-10-16T17:24:00;9.00;99.90
8684;DHT22;4379;59.744;18.206;2022-10-16T17:26:28;9.00;99.90
8684;DHT22;4379;59.744;18.206;2022-10-16T17:28:58;9.00;99.90
8684;DHT22;4379;59.744;18.206;2022-10-16T17:31:34;9.00;99.90
8684;DHT22;4379;59.744;18.206;2022-10-16T17:34:04;9.00;99.90
8684;DHT22;4379;59.744;18.206;2022-10-16T17:36:34;8.90;99.90
8684;DHT22;4379;59.744;18.206;2022-10-16T17:39:07;8.80;99.90
8684;DHT22;4379;59.744;18.206;2022-10-16T17:41:35;8.80;99.90
8684;DHT22;4379;59.744;18.206;2022-10-16T17:44:03;8.90;99.90
8684;DHT22;4379;59.744;18.206;2022-10-16T17:46:31;8.90;99.90
8684;DHT22;4379;59.744;18.206;2022-10-16T17:49:05;8.80;99.90
8684;DHT22;4379;59.744;18.206;2022-10-16T17:51:33;8.80;99.90
8684;DHT22;4379;59.744;18.206;2022-10-16T17:54:00;8.80;99.90
8684;DHT22;4379;59.744;18.206;2022-10-16T17:56:29;8.70;99.90
8684;DHT22;4379;59.744;18.206;2022-10-16T17:58:59;8.70;99.90
8684;DHT22;4379;59.744;18.206;2022-10-16T18:01:38;8.70;99.90
8684;DHT22;4379;59.744;18.206;2022-10-16T18:04:11;8.80;99.90